Meteo Giornale » Osservazioni meteo Stati Uniti (USA) » West Yellowstone
ore: 18:55 - Osservazioni Meteo West Yellowstone
Lat. 44° 41' N Lon. 111° 7' W Alt. 2025 metri s.l.m.
21 °C
Sereno
Temp. 24 Ore
-3 °C
22 °C
Sud-Ovest
11.1 Km/h
Dew point -2 °C
Umidità 21 %
Visibilità 10 Km
Il sole sorge alle ore 06:46
Il sole tramonta alle ore 20:03
| Data e Ora | Cielo e Fenomeni | T °C | DP °C | Um. % | Pres. hPa | Vis. km | Vento km/h | |
|---|---|---|---|---|---|---|---|---|
| Oggi h: 18:55 | Sereno | 21 | -2 | 21 | 1020 | 10 | SO 11.1 | |
| Oggi h: 18:35 | Sereno | 21 | -2 | 21 | 1020 | 10 | SO 9.3 | |
| Oggi h: 18:15 | Sereno | 22 | -4 | 17 | 1020 | 10 | O/SO 13 | |
| Oggi h: 17:50 | Sereno | 22 | -4 | 17 | 1020 | 10 | N 11.1 | |
| Oggi h: 17:35 | Sereno | 22 | -4 | 17 | 1020 | 10 | SO 14.8 | |
| Oggi h: 17:15 | Sereno | 22 | -4 | 17 | 1021 | 10 | O/SO 11.1 | |
| Oggi h: 16:50 | Sereno | 22 | -6 | 14 | 1021 | 10 | O/SO 16.7 | |
| Oggi h: 16:35 | Sereno | 22 | -6 | 14 | 1021 | 10 | SO 22.2 | |
| Oggi h: 16:15 | Sereno | 22 | -6 | 14 | 1021 | 10 | SO 14.8 | |
| Oggi h: 15:50 | Sereno | 22 | -7 | 13 | 1022 | 10 | S/SO 24 | |
| Oggi h: 15:35 | Sereno | 22 | -6 | 14 | 1022 | 10 | S/SO 20.3 | |
| Oggi h: 15:15 | Sereno | 21 | -7 | 14 | 1022 | 10 | SO 13 | |
| Oggi h: 14:50 | Sereno | 21 | -8 | 13 | 1022 | 10 | SO 13 | |
| Oggi h: 14:35 | Sereno | 20 | -7 | 15 | 1022 | 10 | S/SO 20.3 | |
| Oggi h: 14:15 | Sereno | 20 | -7 | 15 | 1023 | 10 | SO 22.2 | |
| Oggi h: 13:50 | Sereno | 20 | -8 | 14 | 1023 | 10 | SO 22.2 | |
| Oggi h: 13:35 | Sereno | 19 | -8 | 15 | 1023 | 10 | SO 22.2 | |
| Oggi h: 13:15 | Sereno | 19 | -8 | 15 | 1023 | 10 | S/SO 25.9 | |
| Oggi h: 12:50 | Sereno | 18 | -7 | 17 | 1023 | 10 | SO 14.8 | |
| Oggi h: 12:35 | Sereno | 18 | -7 | 17 | 1023 | 10 | S/SO 14.8 | |
| Oggi h: 12:15 | Sereno | 17 | -7 | 18 | 1024 | 10 | S/SO 14.8 | |
| Oggi h: 11:50 | Sereno | 17 | -7 | 18 | 1024 | 10 | SO 18.5 | |
| Oggi h: 11:35 | Sereno | 16 | -5 | 23 | 1024 | 10 | N 9.3 | |
| Oggi h: 11:15 | Sereno | 14 | -3 | 30 | 1024 | 10 | N 0 | |
| Oggi h: 10:50 | Sereno | 13 | -3 | 32 | 1024 | 10 | N 7.4 | |
| Oggi h: 10:35 | Sereno | 12 | -4 | 32 | 1024 | 10 | S 7.4 | |
| Oggi h: 10:15 | Sereno | 11 | -2 | 40 | 1024 | 10 | N 0 | |
| Oggi h: 09:50 | Sereno | 9 | -2 | 45 | 1024 | 10 | N 0 | |
| Oggi h: 09:35 | Sereno | 8 | -4 | 42 | 1024 | 10 | N 0 | |
| Oggi h: 09:15 | Sereno | 6 | -2 | 56 | 1024 | 10 | N 0 | |
| Oggi h: 08:50 | Foschia | 4 | -2 | 64 | 1024 | 6 | N 0 | |
| Oggi h: 08:35 | Sereno | 3 | -3 | 64 | 1024 | 10 | N 0 | |
| Oggi h: 08:15 | Sereno | 2 | -3 | 69 | 1024 | 10 | N 0 | |
| Oggi h: 07:50 | Sereno | 0 | -3 | 80 | 1024 | 10 | N 0 | |
| Oggi h: 07:35 | Sereno | -1 | -3 | 86 | 1023 | 10 | N 0 | |
| Oggi h: 07:15 | Sereno | -2 | -4 | 86 | 1023 | 10 | N 0 | |
| Oggi h: 06:50 | Sereno | -3 | -4 | 92 | 1023 | 10 | N 0 | |
| Oggi h: 06:35 | Sereno | -3 | -4 | 92 | 1023 | 10 | N 0 | |
| Oggi h: 06:15 | Sereno | -3 | -4 | 92 | 1023 | 10 | N 0 | |
| Oggi h: 05:50 | Sereno | -2 | -4 | 86 | 1023 | 10 | N 0 | |
| Oggi h: 05:35 | Sereno | -2 | -4 | 86 | 1023 | 10 | N 0 | |
| Oggi h: 05:15 | Sereno | -2 | -4 | 86 | 1023 | 10 | N 0 | |
| Oggi h: 04:50 | Sereno | -1 | -4 | 80 | 1023 | 10 | N 0 | |
| Oggi h: 04:35 | Sereno | -1 | -3 | 86 | 1023 | 10 | N 0 | |
| Oggi h: 04:15 | Sereno | 0 | -3 | 80 | 1023 | 10 | N 0 | |
| Oggi h: 03:50 | Sereno | 0 | -4 | 74 | 1022 | 10 | N 0 | |
| Oggi h: 03:35 | Sereno | 1 | -4 | 69 | 1022 | 10 | N 5.5 | |
| Oggi h: 03:15 | Sereno | 1 | -3 | 74 | 1022 | 10 | N 0 | |
| Oggi h: 02:50 | Sereno | 2 | -4 | 64 | 1022 | 10 | N 0 | |
| Oggi h: 02:35 | Sereno | 2 | -4 | 64 | 1022 | 10 | N 0 | |
| Oggi h: 02:15 | Sereno | 3 | -3 | 64 | 1022 | 10 | N 0 | |
| Oggi h: 01:50 | Sereno | 4 | -4 | 55 | 1022 | 10 | N 0 | |
| Oggi h: 01:35 | Sereno | 4 | -4 | 55 | 1022 | 10 | N/NE 11.1 | |
| Oggi h: 01:15 | Sereno | 4 | -4 | 55 | 1022 | 10 | N 0 | |
| Oggi h: 00:55 | Sereno | 7 | -6 | 38 | 1021 | 10 | N 5.5 | |
| Oggi h: 00:35 | Sereno | 5 | -4 | 52 | 1021 | 10 | N 0 | |
| Oggi h: 00:15 | Sereno | 5 | -4 | 52 | 1021 | 10 | N 0 | |
| Ieri h: 23:55 | Sereno | 7 | -4 | 45 | 1021 | 10 | N 0 | |
| Ieri h: 23:35 | Sereno | 7 | -3 | 48 | 1021 | 10 | N 0 | |
| Ieri h: 23:15 | Sereno | 10 | -5 | 34 | 1021 | 10 | N 9.3 | |
| Ieri h: 22:55 | Sereno | 11 | -6 | 29 | 1021 | 10 | N 11.1 | |
| Ieri h: 22:35 | Sereno | 11 | -5 | 32 | 1021 | 10 | SO 14.8 | |
| Ieri h: 22:15 | Sereno | 10 | -5 | 34 | 1021 | 10 | O/SO 13 | |
| Ieri h: 21:55 | Sereno | 10 | -4 | 36 | 1021 | 10 | O 11.1 | |
| Ieri h: 21:35 | Sereno | 11 | -5 | 32 | 1021 | 10 | O/SO 11.1 | |
| Ieri h: 21:15 | Sereno | 12 | -5 | 30 | 1021 | 10 | O/SO 11.1 | |
| Ieri h: 20:55 | Sereno | 13 | -4 | 30 | 1020 | 10 | SO 13 | |
| Ieri h: 20:35 | Sereno | 13 | -4 | 30 | 1020 | 10 | S/SO 18.5 | |
| Ieri h: 20:15 | Sereno | 14 | -4 | 28 | 1020 | 10 | S/SO 27.8 | |
| Ieri h: 19:55 | Sereno | 14 | -4 | 28 | 1019 | 10 | SO 27.8 | |
| Ieri h: 19:35 | Sereno | 15 | -4 | 26 | 1019 | 10 | S/SO 31.5 | |



